sensor_id;sensor_type;location;lat;lon;timestamp;P1;durP1;ratioP1;P2;durP2;ratioP2
44995;SDS011;30729;49.486;10.792;2023-02-11T00:00:08;36.95;;;16.77;;
44995;SDS011;30729;49.486;10.792;2023-02-11T00:03:46;38.30;;;18.70;;
44995;SDS011;30729;49.486;10.792;2023-02-11T00:07:10;42.33;;;16.92;;
44995;SDS011;30729;49.486;10.792;2023-02-11T00:10:34;27.85;;;14.98;;
44995;SDS011;30729;49.486;10.792;2023-02-11T00:13:59;32.28;;;15.32;;
44995;SDS011;30729;49.486;10.792;2023-02-11T00:17:23;34.92;;;17.15;;
44995;SDS011;30729;49.486;10.792;2023-02-11T00:20:47;38.05;;;17.45;;
44995;SDS011;30729;49.486;10.792;2023-02-11T00:24:10;35.63;;;16.60;;
44995;SDS011;30729;49.486;10.792;2023-02-11T00:27:35;35.25;;;16.17;;
44995;SDS011;30729;49.486;10.792;2023-02-11T00:30:59;27.08;;;12.38;;
44995;SDS011;30729;49.486;10.792;2023-02-11T00:34:29;35.03;;;14.48;;
44995;SDS011;30729;49.486;10.792;2023-02-11T00:37:53;40.13;;;17.42;;
44995;SDS011;30729;49.486;10.792;2023-02-11T00:41:19;39.92;;;14.45;;
44995;SDS011;30729;49.486;10.792;2023-02-11T00:44:43;40.28;;;17.73;;
44995;SDS011;30729;49.486;10.792;2023-02-11T00:48:06;36.22;;;15.23;;
44995;SDS011;30729;49.486;10.792;2023-02-11T00:51:30;37.47;;;17.13;;
44995;SDS011;30729;49.486;10.792;2023-02-11T00:54:55;32.92;;;14.98;;
44995;SDS011;30729;49.486;10.792;2023-02-11T00:58:19;30.45;;;15.68;;
44995;SDS011;30729;49.486;10.792;2023-02-11T01:01:43;36.30;;;16.52;;
44995;SDS011;30729;49.486;10.792;2023-02-11T01:05:06;35.03;;;15.52;;
44995;SDS011;30729;49.486;10.792;2023-02-11T01:08:32;37.25;;;16.90;;
44995;SDS011;30729;49.486;10.792;2023-02-11T01:11:56;40.42;;;16.10;;
44995;SDS011;30729;49.486;10.792;2023-02-11T01:15:20;36.83;;;17.13;;
44995;SDS011;30729;49.486;10.792;2023-02-11T01:18:45;36.15;;;17.40;;
44995;SDS011;30729;49.486;10.792;2023-02-11T01:22:09;37.90;;;17.00;;
44995;SDS011;30729;49.486;10.792;2023-02-11T01:25:33;35.10;;;14.90;;
44995;SDS011;30729;49.486;10.792;2023-02-11T01:28:57;35.65;;;16.17;;
44995;SDS011;30729;49.486;10.792;2023-02-11T01:32:21;34.88;;;17.10;;
44995;SDS011;30729;49.486;10.792;2023-02-11T01:35:45;33.78;;;16.50;;
44995;SDS011;30729;49.486;10.792;2023-02-11T01:39:09;38.45;;;16.63;;
44995;SDS011;30729;49.486;10.792;2023-02-11T01:42:37;41.78;;;17.88;;
44995;SDS011;30729;49.486;10.792;2023-02-11T01:46:25;35.53;;;16.45;;
44995;SDS011;30729;49.486;10.792;2023-02-11T01:49:51;44.03;;;17.10;;
44995;SDS011;30729;49.486;10.792;2023-02-11T01:53:21;36.22;;;16.80;;
44995;SDS011;30729;49.486;10.792;2023-02-11T01:57:06;39.13;;;17.63;;
44995;SDS011;30729;49.486;10.792;2023-02-11T02:03:56;26.13;;;12.43;;
44995;SDS011;30729;49.486;10.792;2023-02-11T02:07:45;36.90;;;16.45;;
44995;SDS011;30729;49.486;10.792;2023-02-11T02:11:35;37.65;;;15.73;;
44995;SDS011;30729;49.486;10.792;2023-02-11T02:18:49;38.13;;;16.42;;
44995;SDS011;30729;49.486;10.792;2023-02-11T02:30:07;34.60;;;15.63;;
44995;SDS011;30729;49.486;10.792;2023-02-11T02:33:59;35.97;;;16.27;;
44995;SDS011;30729;49.486;10.792;2023-02-11T02:41:35;33.88;;;15.65;;
44995;SDS011;30729;49.486;10.792;2023-02-11T02:45:00;29.83;;;15.07;;
44995;SDS011;30729;49.486;10.792;2023-02-11T02:48:54;35.50;;;15.50;;
44995;SDS011;30729;49.486;10.792;2023-02-11T02:55:58;34.78;;;16.58;;
44995;SDS011;30729;49.486;10.792;2023-02-11T03:10:16;35.78;;;15.95;;
44995;SDS011;30729;49.486;10.792;2023-02-11T03:13:43;36.67;;;15.90;;
44995;SDS011;30729;49.486;10.792;2023-02-11T03:17:08;31.65;;;15.75;;
44995;SDS011;30729;49.486;10.792;2023-02-11T03:20:36;34.97;;;15.45;;
44995;SDS011;30729;49.486;10.792;2023-02-11T03:24:07;32.72;;;14.60;;
44995;SDS011;30729;49.486;10.792;2023-02-11T03:27:32;33.53;;;16.38;;
44995;SDS011;30729;49.486;10.792;2023-02-11T03:31:10;34.97;;;16.58;;
44995;SDS011;30729;49.486;10.792;2023-02-11T03:38:13;39.50;;;15.43;;
44995;SDS011;30729;49.486;10.792;2023-02-11T03:41:41;35.30;;;16.50;;
44995;SDS011;30729;49.486;10.792;2023-02-11T03:45:08;32.75;;;16.17;;
44995;SDS011;30729;49.486;10.792;2023-02-11T03:48:36;34.70;;;15.10;;
44995;SDS011;30729;49.486;10.792;2023-02-11T03:52:02;31.67;;;15.68;;
44995;SDS011;30729;49.486;10.792;2023-02-11T03:55:27;34.55;;;15.98;;
44995;SDS011;30729;49.486;10.792;2023-02-11T03:58:54;32.65;;;15.93;;
44995;SDS011;30729;49.486;10.792;2023-02-11T04:02:24;31.80;;;14.82;;
44995;SDS011;30729;49.486;10.792;2023-02-11T04:05:48;32.55;;;15.30;;
44995;SDS011;30729;49.486;10.792;2023-02-11T04:09:12;33.65;;;14.32;;
44995;SDS011;30729;49.486;10.792;2023-02-11T04:12:36;31.92;;;14.18;;
44995;SDS011;30729;49.486;10.792;2023-02-11T04:16:00;34.90;;;14.30;;
44995;SDS011;30729;49.486;10.792;2023-02-11T04:19:24;26.65;;;12.18;;
44995;SDS011;30729;49.486;10.792;2023-02-11T04:22:48;26.08;;;13.13;;
44995;SDS011;30729;49.486;10.792;2023-02-11T04:26:12;29.27;;;12.95;;
44995;SDS011;30729;49.486;10.792;2023-02-11T04:29:36;31.50;;;14.35;;
44995;SDS011;30729;49.486;10.792;2023-02-11T04:33:00;31.85;;;14.95;;
44995;SDS011;30729;49.486;10.792;2023-02-11T04:36:24;28.23;;;13.52;;
44995;SDS011;30729;49.486;10.792;2023-02-11T04:39:47;31.50;;;13.45;;
44995;SDS011;30729;49.486;10.792;2023-02-11T04:43:11;31.10;;;13.70;;
44995;SDS011;30729;49.486;10.792;2023-02-11T04:46:35;29.17;;;12.95;;
44995;SDS011;30729;49.486;10.792;2023-02-11T04:50:00;28.52;;;12.27;;
44995;SDS011;30729;49.486;10.792;2023-02-11T04:53:24;26.05;;;12.27;;
44995;SDS011;30729;49.486;10.792;2023-02-11T04:56:47;31.02;;;12.98;;
44995;SDS011;30729;49.486;10.792;2023-02-11T05:00:11;30.00;;;15.20;;
44995;SDS011;30729;49.486;10.792;2023-02-11T05:03:38;34.40;;;14.98;;
44995;SDS011;30729;49.486;10.792;2023-02-11T05:07:02;32.45;;;14.07;;
44995;SDS011;30729;49.486;10.792;2023-02-11T05:10:26;30.42;;;13.38;;
44995;SDS011;30729;49.486;10.792;2023-02-11T05:13:50;32.95;;;15.18;;
44995;SDS011;30729;49.486;10.792;2023-02-11T05:17:14;27.45;;;12.88;;
44995;SDS011;30729;49.486;10.792;2023-02-11T05:20:41;29.17;;;13.05;;
44995;SDS011;30729;49.486;10.792;2023-02-11T05:24:06;27.38;;;13.10;;
44995;SDS011;30729;49.486;10.792;2023-02-11T05:27:30;31.08;;;14.07;;
44995;SDS011;30729;49.486;10.792;2023-02-11T05:30:54;30.83;;;15.05;;
44995;SDS011;30729;49.486;10.792;2023-02-11T05:34:18;32.28;;;14.98;;
44995;SDS011;30729;49.486;10.792;2023-02-11T05:37:42;30.13;;;13.27;;
44995;SDS011;30729;49.486;10.792;2023-02-11T05:41:07;26.67;;;12.55;;
44995;SDS011;30729;49.486;10.792;2023-02-11T05:44:31;27.77;;;13.30;;
44995;SDS011;30729;49.486;10.792;2023-02-11T05:47:55;27.83;;;12.40;;
44995;SDS011;30729;49.486;10.792;2023-02-11T05:51:20;27.95;;;12.38;;
44995;SDS011;30729;49.486;10.792;2023-02-11T05:54:45;26.23;;;13.93;;
44995;SDS011;30729;49.486;10.792;2023-02-11T05:58:08;29.98;;;14.40;;
44995;SDS011;30729;49.486;10.792;2023-02-11T06:01:33;30.98;;;14.48;;
44995;SDS011;30729;49.486;10.792;2023-02-11T06:04:57;27.58;;;14.27;;
44995;SDS011;30729;49.486;10.792;2023-02-11T06:08:21;31.27;;;14.00;;
44995;SDS011;30729;49.486;10.792;2023-02-11T06:11:45;30.30;;;14.07;;
44995;SDS011;30729;49.486;10.792;2023-02-11T06:15:09;32.55;;;12.05;;
44995;SDS011;30729;49.486;10.792;2023-02-11T06:18:33;27.45;;;12.77;;
44995;SDS011;30729;49.486;10.792;2023-02-11T06:21:58;28.75;;;13.15;;
44995;SDS011;30729;49.486;10.792;2023-02-11T06:25:22;29.48;;;14.55;;
44995;SDS011;30729;49.486;10.792;2023-02-11T06:28:47;27.25;;;13.80;;
44995;SDS011;30729;49.486;10.792;2023-02-11T06:32:11;30.52;;;14.07;;
44995;SDS011;30729;49.486;10.792;2023-02-11T06:35:38;28.25;;;13.32;;
44995;SDS011;30729;49.486;10.792;2023-02-11T06:39:03;28.70;;;12.75;;
44995;SDS011;30729;49.486;10.792;2023-02-11T06:42:27;27.05;;;13.40;;
44995;SDS011;30729;49.486;10.792;2023-02-11T06:45:52;24.55;;;11.32;;
44995;SDS011;30729;49.486;10.792;2023-02-11T06:49:16;28.38;;;12.10;;
44995;SDS011;30729;49.486;10.792;2023-02-11T06:52:40;28.05;;;13.82;;
44995;SDS011;30729;49.486;10.792;2023-02-11T06:56:09;31.17;;;15.48;;
44995;SDS011;30729;49.486;10.792;2023-02-11T06:59:33;24.40;;;11.93;;
44995;SDS011;30729;49.486;10.792;2023-02-11T07:02:57;28.48;;;12.30;;
44995;SDS011;30729;49.486;10.792;2023-02-11T07:06:23;27.23;;;12.63;;
44995;SDS011;30729;49.486;10.792;2023-02-11T07:09:47;25.77;;;12.68;;
44995;SDS011;30729;49.486;10.792;2023-02-11T07:13:11;27.23;;;11.80;;
44995;SDS011;30729;49.486;10.792;2023-02-11T07:16:35;27.70;;;13.75;;
44995;SDS011;30729;49.486;10.792;2023-02-11T07:19:59;25.55;;;12.63;;
44995;SDS011;30729;49.486;10.792;2023-02-11T07:23:23;24.38;;;11.98;;
44995;SDS011;30729;49.486;10.792;2023-02-11T07:26:48;28.65;;;13.68;;
44995;SDS011;30729;49.486;10.792;2023-02-11T07:30:14;25.98;;;12.57;;
44995;SDS011;30729;49.486;10.792;2023-02-11T07:33:39;25.57;;;12.33;;
44995;SDS011;30729;49.486;10.792;2023-02-11T07:37:03;28.73;;;13.60;;
44995;SDS011;30729;49.486;10.792;2023-02-11T07:40:28;26.50;;;12.38;;
44995;SDS011;30729;49.486;10.792;2023-02-11T07:43:52;26.15;;;13.52;;
44995;SDS011;30729;49.486;10.792;2023-02-11T07:47:16;28.77;;;13.23;;
44995;SDS011;30729;49.486;10.792;2023-02-11T07:50:40;29.75;;;13.15;;
44995;SDS011;30729;49.486;10.792;2023-02-11T07:54:04;26.85;;;12.60;;
44995;SDS011;30729;49.486;10.792;2023-02-11T07:57:28;26.27;;;12.02;;
44995;SDS011;30729;49.486;10.792;2023-02-11T08:00:52;25.13;;;12.48;;
44995;SDS011;30729;49.486;10.792;2023-02-11T08:04:16;30.33;;;12.25;;
44995;SDS011;30729;49.486;10.792;2023-02-11T08:07:40;26.13;;;12.63;;
44995;SDS011;30729;49.486;10.792;2023-02-11T08:11:05;27.90;;;13.20;;
44995;SDS011;30729;49.486;10.792;2023-02-11T08:14:29;27.35;;;13.60;;
44995;SDS011;30729;49.486;10.792;2023-02-11T08:17:53;26.80;;;13.20;;
44995;SDS011;30729;49.486;10.792;2023-02-11T08:21:19;28.98;;;13.82;;
44995;SDS011;30729;49.486;10.792;2023-02-11T08:24:43;28.27;;;13.45;;
44995;SDS011;30729;49.486;10.792;2023-02-11T08:28:07;26.80;;;13.50;;
44995;SDS011;30729;49.486;10.792;2023-02-11T08:31:34;25.23;;;13.20;;
44995;SDS011;30729;49.486;10.792;2023-02-11T08:34:58;23.75;;;12.30;;
44995;SDS011;30729;49.486;10.792;2023-02-11T08:38:22;32.63;;;14.30;;
44995;SDS011;30729;49.486;10.792;2023-02-11T08:41:47;26.55;;;12.85;;
44995;SDS011;30729;49.486;10.792;2023-02-11T08:45:11;30.65;;;12.98;;
44995;SDS011;30729;49.486;10.792;2023-02-11T08:48:36;24.00;;;11.75;;
44995;SDS011;30729;49.486;10.792;2023-02-11T08:52:00;24.90;;;12.18;;
44995;SDS011;30729;49.486;10.792;2023-02-11T08:55:24;27.67;;;13.83;;
44995;SDS011;30729;49.486;10.792;2023-02-11T08:58:48;23.48;;;12.32;;
44995;SDS011;30729;49.486;10.792;2023-02-11T09:02:13;26.60;;;12.45;;
44995;SDS011;30729;49.486;10.792;2023-02-11T09:05:41;24.88;;;11.73;;
44995;SDS011;30729;49.486;10.792;2023-02-11T09:09:09;26.70;;;12.65;;
44995;SDS011;30729;49.486;10.792;2023-02-11T09:12:33;27.10;;;12.57;;
44995;SDS011;30729;49.486;10.792;2023-02-11T09:15:58;27.83;;;13.35;;
44995;SDS011;30729;49.486;10.792;2023-02-11T09:19:22;26.15;;;12.05;;
44995;SDS011;30729;49.486;10.792;2023-02-11T09:22:46;25.08;;;10.23;;
44995;SDS011;30729;49.486;10.792;2023-02-11T09:26:31;23.85;;;11.00;;
44995;SDS011;30729;49.486;10.792;2023-02-11T09:29:55;22.50;;;11.35;;
44995;SDS011;30729;49.486;10.792;2023-02-11T09:33:19;27.48;;;13.13;;
44995;SDS011;30729;49.486;10.792;2023-02-11T09:36:43;21.83;;;11.27;;
44995;SDS011;30729;49.486;10.792;2023-02-11T09:40:07;20.35;;;9.70;;
44995;SDS011;30729;49.486;10.792;2023-02-11T09:43:43;17.38;;;8.98;;
44995;SDS011;30729;49.486;10.792;2023-02-11T09:47:17;23.30;;;10.93;;
44995;SDS011;30729;49.486;10.792;2023-02-11T09:54:18;22.20;;;10.65;;
44995;SDS011;30729;49.486;10.792;2023-02-11T09:57:49;21.13;;;10.95;;
44995;SDS011;30729;49.486;10.792;2023-02-11T10:16:36;23.92;;;12.43;;
44995;SDS011;30729;49.486;10.792;2023-02-11T10:20:30;29.83;;;12.27;;
44995;SDS011;30729;49.486;10.792;2023-02-11T10:24:20;26.25;;;12.32;;
44995;SDS011;30729;49.486;10.792;2023-02-11T10:27:51;23.90;;;12.73;;
44995;SDS011;30729;49.486;10.792;2023-02-11T10:31:24;26.20;;;14.15;;
44995;SDS011;30729;49.486;10.792;2023-02-11T10:35:17;24.13;;;12.68;;
44995;SDS011;30729;49.486;10.792;2023-02-11T10:38:42;25.85;;;13.10;;
44995;SDS011;30729;49.486;10.792;2023-02-11T10:42:08;28.75;;;14.88;;
44995;SDS011;30729;49.486;10.792;2023-02-11T10:45:42;26.02;;;13.55;;
44995;SDS011;30729;49.486;10.792;2023-02-11T10:49:06;31.20;;;15.30;;
44995;SDS011;30729;49.486;10.792;2023-02-11T10:52:44;25.52;;;13.43;;
44995;SDS011;30729;49.486;10.792;2023-02-11T10:56:10;27.13;;;14.48;;
44995;SDS011;30729;49.486;10.792;2023-02-11T10:59:42;26.58;;;13.57;;
44995;SDS011;30729;49.486;10.792;2023-02-11T11:03:22;27.48;;;14.27;;
44995;SDS011;30729;49.486;10.792;2023-02-11T11:11:09;28.23;;;14.88;;
44995;SDS011;30729;49.486;10.792;2023-02-11T11:14:53;31.17;;;15.13;;
44995;SDS011;30729;49.486;10.792;2023-02-11T11:18:30;28.92;;;14.40;;
44995;SDS011;30729;49.486;10.792;2023-02-11T11:21:55;29.40;;;13.77;;
44995;SDS011;30729;49.486;10.792;2023-02-11T11:25:38;23.02;;;11.60;;
44995;SDS011;30729;49.486;10.792;2023-02-11T11:29:08;24.98;;;13.32;;
44995;SDS011;30729;49.486;10.792;2023-02-11T11:32:40;28.13;;;14.50;;
44995;SDS011;30729;49.486;10.792;2023-02-11T11:36:10;25.77;;;14.48;;
44995;SDS011;30729;49.486;10.792;2023-02-11T11:39:40;26.38;;;14.93;;
44995;SDS011;30729;49.486;10.792;2023-02-11T11:47:04;27.98;;;14.38;;
44995;SDS011;30729;49.486;10.792;2023-02-11T11:54:22;26.05;;;13.02;;
44995;SDS011;30729;49.486;10.792;2023-02-11T11:57:53;23.73;;;12.40;;
44995;SDS011;30729;49.486;10.792;2023-02-11T12:05:12;30.37;;;14.13;;
44995;SDS011;30729;49.486;10.792;2023-02-11T12:09:03;28.33;;;14.10;;
44995;SDS011;30729;49.486;10.792;2023-02-11T12:12:39;27.85;;;14.73;;
44995;SDS011;30729;49.486;10.792;2023-02-11T12:16:19;21.75;;;12.77;;
44995;SDS011;30729;49.486;10.792;2023-02-11T12:27:43;27.52;;;13.70;;
44995;SDS011;30729;49.486;10.792;2023-02-11T12:39:18;25.75;;;13.02;;
44995;SDS011;30729;49.486;10.792;2023-02-11T12:46:50;32.40;;;15.45;;
44995;SDS011;30729;49.486;10.792;2023-02-11T12:50:26;35.67;;;16.85;;
44995;SDS011;30729;49.486;10.792;2023-02-11T12:57:49;29.35;;;14.98;;
44995;SDS011;30729;49.486;10.792;2023-02-11T13:01:17;25.13;;;13.43;;
44995;SDS011;30729;49.486;10.792;2023-02-11T13:05:08;25.20;;;13.65;;
44995;SDS011;30729;49.486;10.792;2023-02-11T13:08:43;29.02;;;13.80;;
44995;SDS011;30729;49.486;10.792;2023-02-11T13:12:44;28.52;;;14.10;;
44995;SDS011;30729;49.486;10.792;2023-02-11T13:16:15;27.92;;;13.50;;
44995;SDS011;30729;49.486;10.792;2023-02-11T13:19:49;29.60;;;14.32;;
44995;SDS011;30729;49.486;10.792;2023-02-11T13:23:27;28.15;;;14.23;;
44995;SDS011;30729;49.486;10.792;2023-02-11T13:30:33;26.90;;;13.90;;
44995;SDS011;30729;49.486;10.792;2023-02-11T13:33:57;28.17;;;14.00;;
44995;SDS011;30729;49.486;10.792;2023-02-11T13:44:39;24.60;;;12.88;;
44995;SDS011;30729;49.486;10.792;2023-02-11T13:51:48;25.17;;;12.88;;
44995;SDS011;30729;49.486;10.792;2023-02-11T13:58:48;30.52;;;15.18;;
44995;SDS011;30729;49.486;10.792;2023-02-11T14:10:52;26.63;;;14.20;;
44995;SDS011;30729;49.486;10.792;2023-02-11T14:14:16;23.58;;;12.93;;
44995;SDS011;30729;49.486;10.792;2023-02-11T14:17:44;26.85;;;13.52;;
44995;SDS011;30729;49.486;10.792;2023-02-11T14:28:17;32.97;;;15.88;;
44995;SDS011;30729;49.486;10.792;2023-02-11T14:31:47;29.50;;;14.77;;
44995;SDS011;30729;49.486;10.792;2023-02-11T14:42:21;30.25;;;14.48;;
44995;SDS011;30729;49.486;10.792;2023-02-11T14:45:52;30.58;;;15.10;;
44995;SDS011;30729;49.486;10.792;2023-02-11T14:49:51;30.85;;;16.80;;
44995;SDS011;30729;49.486;10.792;2023-02-11T14:53:12;31.27;;;15.07;;
44995;SDS011;30729;49.486;10.792;2023-02-11T14:56:41;30.30;;;15.05;;
44995;SDS011;30729;49.486;10.792;2023-02-11T15:00:21;28.13;;;15.15;;
44995;SDS011;30729;49.486;10.792;2023-02-11T15:04:00;27.50;;;14.15;;
44995;SDS011;30729;49.486;10.792;2023-02-11T15:07:47;32.45;;;16.92;;
44995;SDS011;30729;49.486;10.792;2023-02-11T15:11:37;26.95;;;13.93;;
44995;SDS011;30729;49.486;10.792;2023-02-11T15:15:04;23.90;;;13.48;;
44995;SDS011;30729;49.486;10.792;2023-02-11T15:18:38;29.33;;;15.43;;
44995;SDS011;30729;49.486;10.792;2023-02-11T15:22:06;28.17;;;15.35;;
44995;SDS011;30729;49.486;10.792;2023-02-11T15:25:41;30.42;;;15.40;;
44995;SDS011;30729;49.486;10.792;2023-02-11T15:29:14;30.10;;;14.77;;
44995;SDS011;30729;49.486;10.792;2023-02-11T15:32:56;29.55;;;15.18;;
44995;SDS011;30729;49.486;10.792;2023-02-11T15:36:21;31.15;;;15.35;;
44995;SDS011;30729;49.486;10.792;2023-02-11T15:39:47;34.78;;;17.38;;
44995;SDS011;30729;49.486;10.792;2023-02-11T15:43:16;37.85;;;18.33;;
44995;SDS011;30729;49.486;10.792;2023-02-11T15:46:53;32.50;;;16.98;;
44995;SDS011;30729;49.486;10.792;2023-02-11T15:50:25;56.42;;;25.67;;
44995;SDS011;30729;49.486;10.792;2023-02-11T15:53:55;34.15;;;17.52;;
44995;SDS011;30729;49.486;10.792;2023-02-11T15:57:23;25.67;;;14.40;;
44995;SDS011;30729;49.486;10.792;2023-02-11T16:00:48;32.00;;;15.02;;
44995;SDS011;30729;49.486;10.792;2023-02-11T16:04:16;31.38;;;16.75;;
44995;SDS011;30729;49.486;10.792;2023-02-11T16:07:49;32.03;;;16.20;;
44995;SDS011;30729;49.486;10.792;2023-02-11T16:11:25;33.88;;;17.08;;
44995;SDS011;30729;49.486;10.792;2023-02-11T16:14:53;30.70;;;15.82;;
44995;SDS011;30729;49.486;10.792;2023-02-11T16:18:33;27.58;;;15.20;;
44995;SDS011;30729;49.486;10.792;2023-02-11T16:21:59;33.50;;;16.33;;
44995;SDS011;30729;49.486;10.792;2023-02-11T16:25:25;34.15;;;15.77;;
44995;SDS011;30729;49.486;10.792;2023-02-11T16:28:49;30.45;;;14.77;;
44995;SDS011;30729;49.486;10.792;2023-02-11T16:35:38;28.08;;;15.25;;
44995;SDS011;30729;49.486;10.792;2023-02-11T16:39:02;27.58;;;13.95;;
44995;SDS011;30729;49.486;10.792;2023-02-11T16:42:25;25.77;;;14.75;;
44995;SDS011;30729;49.486;10.792;2023-02-11T16:45:49;30.77;;;15.77;;
44995;SDS011;30729;49.486;10.792;2023-02-11T16:49:20;30.40;;;16.08;;
44995;SDS011;30729;49.486;10.792;2023-02-11T16:52:46;28.63;;;14.57;;
44995;SDS011;30729;49.486;10.792;2023-02-11T16:56:12;27.38;;;15.43;;
44995;SDS011;30729;49.486;10.792;2023-02-11T16:59:41;33.33;;;15.82;;
44995;SDS011;30729;49.486;10.792;2023-02-11T17:03:06;30.52;;;15.75;;
44995;SDS011;30729;49.486;10.792;2023-02-11T17:06:31;37.08;;;18.30;;
44995;SDS011;30729;49.486;10.792;2023-02-11T17:09:56;29.02;;;15.05;;
44995;SDS011;30729;49.486;10.792;2023-02-11T17:13:19;37.65;;;18.70;;
44995;SDS011;30729;49.486;10.792;2023-02-11T17:16:44;45.10;;;19.77;;
44995;SDS011;30729;49.486;10.792;2023-02-11T17:20:10;42.55;;;20.10;;
44995;SDS011;30729;49.486;10.792;2023-02-11T17:23:34;54.88;;;26.17;;
44995;SDS011;30729;49.486;10.792;2023-02-11T17:26:58;46.45;;;23.98;;
44995;SDS011;30729;49.486;10.792;2023-02-11T17:30:22;38.92;;;21.88;;
44995;SDS011;30729;49.486;10.792;2023-02-11T17:33:47;34.55;;;17.38;;
44995;SDS011;30729;49.486;10.792;2023-02-11T17:37:10;36.33;;;18.35;;
44995;SDS011;30729;49.486;10.792;2023-02-11T17:40:34;32.83;;;18.23;;
44995;SDS011;30729;49.486;10.792;2023-02-11T17:44:00;35.63;;;18.25;;
44995;SDS011;30729;49.486;10.792;2023-02-11T17:47:24;40.00;;;18.13;;
44995;SDS011;30729;49.486;10.792;2023-02-11T17:50:49;38.95;;;18.10;;
44995;SDS011;30729;49.486;10.792;2023-02-11T17:54:14;34.58;;;16.98;;
44995;SDS011;30729;49.486;10.792;2023-02-11T17:57:38;32.22;;;17.38;;
44995;SDS011;30729;49.486;10.792;2023-02-11T18:01:02;32.88;;;17.13;;
44995;SDS011;30729;49.486;10.792;2023-02-11T18:04:27;34.35;;;16.95;;
44995;SDS011;30729;49.486;10.792;2023-02-11T18:07:53;31.27;;;17.13;;
44995;SDS011;30729;49.486;10.792;2023-02-11T18:11:17;36.95;;;16.83;;
44995;SDS011;30729;49.486;10.792;2023-02-11T18:14:49;33.60;;;18.27;;
44995;SDS011;30729;49.486;10.792;2023-02-11T18:18:13;32.40;;;17.55;;
44995;SDS011;30729;49.486;10.792;2023-02-11T18:21:37;31.75;;;17.55;;
44995;SDS011;30729;49.486;10.792;2023-02-11T18:25:05;32.42;;;16.88;;
44995;SDS011;30729;49.486;10.792;2023-02-11T18:28:33;34.05;;;16.67;;
44995;SDS011;30729;49.486;10.792;2023-02-11T18:31:57;33.63;;;18.58;;
44995;SDS011;30729;49.486;10.792;2023-02-11T18:35:21;33.83;;;18.15;;
44995;SDS011;30729;49.486;10.792;2023-02-11T18:38:46;34.53;;;17.95;;
44995;SDS011;30729;49.486;10.792;2023-02-11T18:42:10;33.58;;;18.08;;
44995;SDS011;30729;49.486;10.792;2023-02-11T18:45:33;31.58;;;16.95;;
44995;SDS011;30729;49.486;10.792;2023-02-11T18:48:58;32.30;;;16.48;;
44995;SDS011;30729;49.486;10.792;2023-02-11T18:52:21;34.40;;;17.10;;
44995;SDS011;30729;49.486;10.792;2023-02-11T18:55:46;35.28;;;18.55;;
44995;SDS011;30729;49.486;10.792;2023-02-11T18:59:10;35.15;;;17.17;;
44995;SDS011;30729;49.486;10.792;2023-02-11T19:02:35;32.88;;;17.08;;
44995;SDS011;30729;49.486;10.792;2023-02-11T19:05:58;33.25;;;18.55;;
44995;SDS011;30729;49.486;10.792;2023-02-11T19:09:27;31.15;;;17.20;;
44995;SDS011;30729;49.486;10.792;2023-02-11T19:12:52;31.67;;;17.00;;
44995;SDS011;30729;49.486;10.792;2023-02-11T19:16:16;31.50;;;18.08;;
44995;SDS011;30729;49.486;10.792;2023-02-11T19:19:40;33.83;;;17.17;;
44995;SDS011;30729;49.486;10.792;2023-02-11T19:23:05;31.67;;;16.55;;
44995;SDS011;30729;49.486;10.792;2023-02-11T19:26:31;34.92;;;18.52;;
44995;SDS011;30729;49.486;10.792;2023-02-11T19:29:55;34.17;;;16.95;;
44995;SDS011;30729;49.486;10.792;2023-02-11T19:33:19;36.88;;;18.50;;
44995;SDS011;30729;49.486;10.792;2023-02-11T19:36:43;34.67;;;17.30;;
44995;SDS011;30729;49.486;10.792;2023-02-11T19:40:09;33.58;;;17.08;;
44995;SDS011;30729;49.486;10.792;2023-02-11T19:43:34;32.30;;;16.73;;
44995;SDS011;30729;49.486;10.792;2023-02-11T19:46:58;28.73;;;16.13;;
44995;SDS011;30729;49.486;10.792;2023-02-11T19:50:22;32.15;;;17.30;;
44995;SDS011;30729;49.486;10.792;2023-02-11T19:53:46;28.73;;;15.48;;
44995;SDS011;30729;49.486;10.792;2023-02-11T19:57:10;30.35;;;16.25;;
44995;SDS011;30729;49.486;10.792;2023-02-11T20:00:34;30.40;;;16.35;;
44995;SDS011;30729;49.486;10.792;2023-02-11T20:03:58;30.10;;;16.75;;
44995;SDS011;30729;49.486;10.792;2023-02-11T20:07:23;31.60;;;15.57;;
44995;SDS011;30729;49.486;10.792;2023-02-11T20:10:46;27.95;;;15.13;;
44995;SDS011;30729;49.486;10.792;2023-02-11T20:14:11;29.73;;;16.63;;
44995;SDS011;30729;49.486;10.792;2023-02-11T20:17:35;29.60;;;15.80;;
44995;SDS011;30729;49.486;10.792;2023-02-11T20:21:04;29.90;;;15.20;;
44995;SDS011;30729;49.486;10.792;2023-02-11T20:24:28;27.77;;;15.63;;
44995;SDS011;30729;49.486;10.792;2023-02-11T20:27:52;29.45;;;14.77;;
44995;SDS011;30729;49.486;10.792;2023-02-11T20:31:18;31.67;;;15.50;;
44995;SDS011;30729;49.486;10.792;2023-02-11T20:34:42;28.90;;;14.98;;
44995;SDS011;30729;49.486;10.792;2023-02-11T20:38:06;28.70;;;14.93;;
44995;SDS011;30729;49.486;10.792;2023-02-11T20:41:31;29.60;;;15.07;;
44995;SDS011;30729;49.486;10.792;2023-02-11T20:44:55;29.40;;;15.98;;
44995;SDS011;30729;49.486;10.792;2023-02-11T20:48:19;33.13;;;16.45;;
44995;SDS011;30729;49.486;10.792;2023-02-11T20:51:45;29.98;;;14.45;;
44995;SDS011;30729;49.486;10.792;2023-02-11T20:55:09;32.65;;;15.82;;
44995;SDS011;30729;49.486;10.792;2023-02-11T20:58:35;29.73;;;15.23;;
44995;SDS011;30729;49.486;10.792;2023-02-11T21:01:58;29.23;;;14.88;;
44995;SDS011;30729;49.486;10.792;2023-02-11T21:05:22;30.58;;;15.45;;
44995;SDS011;30729;49.486;10.792;2023-02-11T21:08:47;31.02;;;16.83;;
44995;SDS011;30729;49.486;10.792;2023-02-11T21:12:11;34.40;;;15.68;;
44995;SDS011;30729;49.486;10.792;2023-02-11T21:15:35;28.25;;;14.85;;
44995;SDS011;30729;49.486;10.792;2023-02-11T21:18:59;29.00;;;15.23;;
44995;SDS011;30729;49.486;10.792;2023-02-11T21:22:23;30.92;;;15.30;;
44995;SDS011;30729;49.486;10.792;2023-02-11T21:25:47;32.08;;;15.73;;
44995;SDS011;30729;49.486;10.792;2023-02-11T21:29:11;34.88;;;16.88;;
44995;SDS011;30729;49.486;10.792;2023-02-11T21:32:35;31.17;;;16.92;;
44995;SDS011;30729;49.486;10.792;2023-02-11T21:36:00;34.67;;;16.70;;
44995;SDS011;30729;49.486;10.792;2023-02-11T21:39:25;33.38;;;17.45;;
44995;SDS011;30729;49.486;10.792;2023-02-11T21:42:52;34.97;;;18.17;;
44995;SDS011;30729;49.486;10.792;2023-02-11T21:46:17;33.63;;;16.58;;
44995;SDS011;30729;49.486;10.792;2023-02-11T21:49:41;31.33;;;16.42;;
44995;SDS011;30729;49.486;10.792;2023-02-11T21:53:05;34.97;;;16.83;;
44995;SDS011;30729;49.486;10.792;2023-02-11T21:56:30;33.42;;;16.33;;
44995;SDS011;30729;49.486;10.792;2023-02-11T21:59:54;35.25;;;17.25;;
44995;SDS011;30729;49.486;10.792;2023-02-11T22:03:18;36.63;;;17.42;;
44995;SDS011;30729;49.486;10.792;2023-02-11T22:06:42;36.38;;;17.70;;
44995;SDS011;30729;49.486;10.792;2023-02-11T22:10:06;40.25;;;19.27;;
44995;SDS011;30729;49.486;10.792;2023-02-11T22:13:33;38.85;;;17.58;;